Time;durP1;ratioP1;P1;durP2;ratioP2;P2;SDS_P1;SDS_P2;PMS_P1;PMS_P2;Temp;Humidity;BMP_temperature;BMP_pressure;BME280_temperature;BME280_humidity;BME280_pressure;Samples;Min_cycle;Max_cycle;Signal;HPM_P1;HPM_P2
2023/08/10 00:00:09;;;;;;;;;;;;;;;;;;1055085;28;2486;-58
2023/08/10 00:00:43;;;;;;;;;;;;;;;;;;1055100;28;3790;-60
2023/08/10 00:01:33;;;;;;;;;;;;;;;;;;1050462;28;4010;-59
2023/08/10 00:02:03;;;;;;;;;;;;;;;;;;1050625;28;3118;-59
2023/08/10 00:02:34;;;;;;;;;;;;;;;;;;1050393;28;4235;-57
2023/08/10 00:03:04;;;;;;;;;;;;;;;;;;1053979;28;1969;-58
2023/08/10 00:03:35;;;;;;;;;;;;;;;;;;1054889;28;3709;-60
2023/08/10 00:04:05;;;;;;;;;;;;;;;;;;1055523;28;1750;-57
2023/08/10 00:04:35;;;;;;;;;;;;;;;;;;1054433;28;3757;-59
2023/08/10 00:05:06;;;;;;;;;;;;;;;;;;1055519;28;3102;-60
2023/08/10 00:05:37;;;;;;;;;;;;;;;;;;1050493;28;3875;-59
2023/08/10 00:06:07;;;;;;;;;;;;;;;;;;1051503;28;1825;-57
2023/08/10 00:06:39;;;;;;;;;;;;;;;;;;1050244;28;3874;-59
2023/08/10 00:07:10;;;;;;;;;;;;;;;;;;1051351;28;4065;-57
2023/08/10 00:07:40;;;;;;;;;;;;;;;;;;1054319;28;1844;-60
2023/08/10 00:08:10;;;;;;;;;;;;;;;;;;1054641;28;4063;-57
2023/08/10 00:08:40;;;;;;;;;;;;;;;;;;1055198;28;1612;-58
2023/08/10 00:09:11;;;;;;;;;;;;;;;;;;1055834;28;4018;-57
2023/08/10 00:09:42;;;;;;;;;;;;;;;;;;1055313;28;1892;-59
2023/08/10 00:10:12;;;;;;;;;;;;;;;;;;1054938;28;4040;-57
2023/08/10 00:10:42;;;;;;;;;;;;;;;;;;1049554;28;3107;-58
2023/08/10 00:11:12;;;;;;;;;;;;;;;;;;1053047;28;4060;-57
2023/08/10 00:11:43;;;;;;;;;;;;;;;;;;1055677;28;1613;-58
2023/08/10 00:12:13;;;;;;;;;;;;;;;;;;1051413;28;4121;-59
2023/08/10 00:12:44;;;;;;;;;;;;;;;;;;1054238;28;2754;-58
2023/08/10 00:13:14;;;;;;;;;;;;;;;;;;1054857;28;4022;-58
2023/08/10 00:13:44;;;;;;;;;;;;;;;;;;1054777;28;2914;-58
2023/08/10 00:14:14;;;;;;;;;;;;;;;;;;1049056;28;3777;-59
2023/08/10 00:14:45;;;;;;;;;;;;;;;;;;1050967;28;1717;-58
2023/08/10 00:15:15;;;;;;;;;;;;;;;;;;1049716;28;4022;-57
2023/08/10 00:15:45;;;;;;;;;;;;;;;;;;1051318;28;1530;-55
2023/08/10 00:16:15;;;;;;;;;;;;;;;;;;1054637;28;4026;-58
2023/08/10 00:16:46;;;;;;;;;;;;;;;;;;1055256;28;2675;-58
2023/08/10 00:17:16;;;;;;;;;;;;;;;;;;1054565;28;4421;-58
2023/08/10 00:17:47;;;;;;;;;;;;;;;;;;1054287;28;3001;-59
2023/08/10 00:18:17;;;;;;;;;;;;;;;;;;1054629;28;4215;-59
2023/08/10 00:18:47;;;;;;;;;;;;;;;;;;1055478;28;1852;-57
2023/08/10 00:19:17;;;;;;;;;;;;;;;;;;1055356;28;3987;-57
2023/08/10 00:19:48;;;;;;;;;;;;;;;;;;1054762;28;3001;-58
2023/08/10 00:20:18;;;;;;;;;;;;;;;;;;1055398;28;4029;-57
2023/08/10 00:20:48;;;;;;;;;;;;;;;;;;1055506;28;1736;-57
2023/08/10 00:21:19;;;;;;;;;;;;;;;;;;1055306;28;4077;-60
2023/08/10 00:21:49;;;;;;;;;;;;;;;;;;1055148;28;1947;-56
2023/08/10 00:22:19;;;;;;;;;;;;;;;;;;1055617;28;3760;-56
2023/08/10 00:22:49;;;;;;;;;;;;;;;;;;1053058;28;3039;-58
2023/08/10 00:23:20;;;;;;;;;;;;;;;;;;1055347;28;3854;-58
2023/08/10 00:23:50;;;;;;;;;;;;;;;;;;1055909;28;1686;-59
2023/08/10 00:24:20;;;;;;;;;;;;;;;;;;1054480;28;4361;-60
2023/08/10 00:24:51;;;;;;;;;;;;;;;;;;1056140;28;1754;-59
2023/08/10 00:25:21;;;;;;;;;;;;;;;;;;1052677;28;3990;-54
2023/08/10 00:25:52;;;;;;;;;;;;;;;;;;1054777;28;3359;-58
2023/08/10 00:26:23;;;;;;;;;;;;;;;;;;1054671;28;4135;-58
2023/08/10 00:26:53;;;;;;;;;;;;;;;;;;1056057;28;1284;-60
2023/08/10 00:27:25;;;;;;;;;;;;;;;;;;1054992;28;4061;-58
2023/08/10 00:27:55;;;;;;;;;;;;;;;;;;1055977;28;1635;-58
2023/08/10 00:28:26;;;;;;;;;;;;;;;;;;1055579;28;3992;-58
2023/08/10 00:28:56;;;;;;;;;;;;;;;;;;1054574;28;2925;-60
2023/08/10 00:29:27;;;;;;;;;;;;;;;;;;1055697;28;3919;-60
2023/08/10 00:29:57;;;;;;;;;;;;;;;;;;1055464;28;2454;-55
2023/08/10 00:30:28;;;;;;;;;;;;;;;;;;1054430;28;4046;-58
2023/08/10 00:30:58;;;;;;;;;;;;;;;;;;1055768;28;1747;-58
2023/08/10 00:31:28;;;;;;;;;;;;;;;;;;1055703;28;3962;-56
2023/08/10 00:31:59;;;;;;;;;;;;;;;;;;1055194;28;3216;-59
2023/08/10 00:32:29;;;;;;;;;;;;;;;;;;1054506;28;3764;-59
2023/08/10 00:32:59;;;;;;;;;;;;;;;;;;1051540;28;2338;-57
2023/08/10 00:33:30;;;;;;;;;;;;;;;;;;1050382;28;4024;-59
2023/08/10 00:34:01;;;;;;;;;;;;;;;;;;1051459;28;1784;-58
2023/08/10 00:34:32;;;;;;;;;;;;;;;;;;1050010;28;4022;-59
2023/08/10 00:35:02;;;;;;;;;;;;;;;;;;1055244;28;3027;-58
2023/08/10 00:35:33;;;;;;;;;;;;;;;;;;1055013;28;3847;-59
2023/08/10 00:36:04;;;;;;;;;;;;;;;;;;1056012;28;1742;-60
2023/08/10 00:36:35;;;;;;;;;;;;;;;;;;1054945;28;4322;-58
2023/08/10 00:37:05;;;;;;;;;;;;;;;;;;1055851;28;1655;-60
2023/08/10 00:37:36;;;;;;;;;;;;;;;;;;1055003;28;3782;-57
2023/08/10 00:38:06;;;;;;;;;;;;;;;;;;1054981;28;2978;-60
2023/08/10 00:38:39;;;;;;;;;;;;;;;;;;1053764;28;3933;-59
2023/08/10 00:39:10;;;;;;;;;;;;;;;;;;1055311;28;3731;-58
2023/08/10 00:39:40;;;;;;;;;;;;;;;;;;1055386;28;1656;-58
2023/08/10 00:40:12;;;;;;;;;;;;;;;;;;1055575;28;4027;-59
2023/08/10 00:40:42;;;;;;;;;;;;;;;;;;1054786;28;3836;-56
2023/08/10 00:41:13;;;;;;;;;;;;;;;;;;1054318;28;3868;-58
2023/08/10 00:41:43;;;;;;;;;;;;;;;;;;1055397;28;1880;-58
2023/08/10 00:42:13;;;;;;;;;;;;;;;;;;1055619;28;3963;-58
2023/08/10 00:42:44;;;;;;;;;;;;;;;;;;1055871;28;1910;-58
2023/08/10 00:43:14;;;;;;;;;;;;;;;;;;1054898;28;4206;-58
2023/08/10 00:43:44;;;;;;;;;;;;;;;;;;1055921;28;1741;-60
2023/08/10 00:44:16;;;;;;;;;;;;;;;;;;1054259;28;3780;-60
2023/08/10 00:44:46;;;;;;;;;;;;;;;;;;1046081;28;2999;-58
2023/08/10 00:45:16;;;;;;;;;;;;;;;;;;1045642;28;4044;-58
2023/08/10 00:45:47;;;;;;;;;;;;;;;;;;1047320;28;1687;-59
2023/08/10 00:46:17;;;;;;;;;;;;;;;;;;1046289;28;4135;-60
2023/08/10 00:46:49;;;;;;;;;;;;;;;;;;1056031;28;1614;-57
2023/08/10 00:47:19;;;;;;;;;;;;;;;;;;1053448;28;4022;-60
2023/08/10 00:47:52;;;;;;;;;;;;;;;;;;1056268;28;1782;-58
2023/08/10 00:48:22;;;;;;;;;;;;;;;;;;1054675;28;4031;-58
2023/08/10 00:48:53;;;;;;;;;;;;;;;;;;1056090;28;1614;-60
2023/08/10 00:49:23;;;;;;;;;;;;;;;;;;1054791;28;3971;-59
2023/08/10 00:49:53;;;;;;;;;;;;;;;;;;1055860;28;1188;-58
2023/08/10 00:50:24;;;;;;;;;;;;;;;;;;1054787;28;4031;-60
2023/08/10 00:50:54;;;;;;;;;;;;;;;;;;1055358;28;1952;-56
2023/08/10 00:51:25;;;;;;;;;;;;;;;;;;1055382;28;3976;-60
2023/08/10 00:51:55;;;;;;;;;;;;;;;;;;1055484;28;1732;-57
2023/08/10 00:52:25;;;;;;;;;;;;;;;;;;1054624;28;3979;-55
2023/08/10 00:52:56;;;;;;;;;;;;;;;;;;1055280;28;3052;-55
2023/08/10 00:53:26;;;;;;;;;;;;;;;;;;1053414;28;3771;-58
2023/08/10 00:53:57;;;;;;;;;;;;;;;;;;1053372;28;3065;-56
2023/08/10 00:54:27;;;;;;;;;;;;;;;;;;1055478;28;4083;-59
2023/08/10 00:54:57;;;;;;;;;;;;;;;;;;1054213;28;2933;-58
2023/08/10 00:55:27;;;;;;;;;;;;;;;;;;1055065;28;3996;-60
2023/08/10 00:55:59;;;;;;;;;;;;;;;;;;1054750;28;2953;-59
2023/08/10 00:56:29;;;;;;;;;;;;;;;;;;1051327;28;4060;-58
2023/08/10 00:57:00;;;;;;;;;;;;;;;;;;1052376;28;1832;-58
2023/08/10 00:57:30;;;;;;;;;;;;;;;;;;1050913;28;4021;-57
2023/08/10 00:58:01;;;;;;;;;;;;;;;;;;1052325;28;1777;-57
2023/08/10 00:58:32;;;;;;;;;;;;;;;;;;1055946;28;4015;-58
2023/08/10 00:59:03;;;;;;;;;;;;;;;;;;1056759;28;1669;-60
2023/08/10 00:59:33;;;;;;;;;;;;;;;;;;1055931;28;3710;-60
2023/08/10 01:00:05;;;;;;;;;;;;;;;;;;1051744;28;1649;-60
2023/08/10 01:00:36;;;;;;;;;;;;;;;;;;1050970;28;4004;-57
2023/08/10 01:01:06;;;;;;;;;;;;;;;;;;1051518;28;2946;-56
2023/08/10 01:01:36;;;;;;;;;;;;;;;;;;1051528;28;4012;-60
2023/08/10 01:02:07;;;;;;;;;;;;;;;;;;1056876;28;1806;-54
2023/08/10 01:02:38;;;;;;;;;;;;;;;;;;1055784;28;4015;-58
2023/08/10 01:03:09;;;;;;;;;;;;;;;;;;1056334;28;1984;-58
2023/08/10 01:03:39;;;;;;;;;;;;;;;;;;1055894;28;3788;-59
2023/08/10 01:04:10;;;;;;;;;;;;;;;;;;1055708;28;3913;-55
2023/08/10 01:04:41;;;;;;;;;;;;;;;;;;1056738;28;2040;-60
2023/08/10 01:05:12;;;;;;;;;;;;;;;;;;1055490;28;4448;-60
2023/08/10 01:06:06;;;;;;;;;;;;;;;;;;1056683;28;1414;-58
2023/08/10 01:06:47;;;;;;;;;;;;;;;;;;1047983;28;3895;-55
2023/08/10 01:07:34;;;;;;;;;;;;;;;;;;1055817;28;3956;-57
2023/08/10 01:08:11;;;;;;;;;;;;;;;;;;1056080;28;1124;-55
2023/08/10 01:08:47;;;;;;;;;;;;;;;;;;1052313;28;3851;-57
2023/08/10 01:09:29;;;;;;;;;;;;;;;;;;1051594;28;4033;-58
2023/08/10 01:10:09;;;;;;;;;;;;;;;;;;1049902;28;2694;-60
2023/08/10 01:10:47;;;;;;;;;;;;;;;;;;1055569;28;3984;-59
2023/08/10 01:11:21;;;;;;;;;;;;;;;;;;1055469;28;4368;-55
2023/08/10 01:12:01;;;;;;;;;;;;;;;;;;1056840;28;1664;-58
2023/08/10 01:12:36;;;;;;;;;;;;;;;;;;1055705;28;3886;-59
2023/08/10 01:13:16;;;;;;;;;;;;;;;;;;1056662;28;1155;-57
2023/08/10 01:13:52;;;;;;;;;;;;;;;;;;1054729;28;3843;-57
2023/08/10 01:14:25;;;;;;;;;;;;;;;;;;1055608;28;4134;-56
2023/08/10 01:14:55;;;;;;;;;;;;;;;;;;1055894;28;1834;-57
2023/08/10 01:15:35;;;;;;;;;;;;;;;;;;1055587;28;3854;-58
2023/08/10 01:16:09;;;;;;;;;;;;;;;;;;1055426;28;2933;-59
2023/08/10 01:16:41;;;;;;;;;;;;;;;;;;1055006;28;3854;-57
2023/08/10 01:17:14;;;;;;;;;;;;;;;;;;1055783;27;3949;-60
2023/08/10 01:17:56;;;;;;;;;;;;;;;;;;1056156;28;1720;-58
2023/08/10 01:18:27;;;;;;;;;;;;;;;;;;1051488;28;3740;-59
2023/08/10 01:18:58;;;;;;;;;;;;;;;;;;1051856;28;1969;-60
2023/08/10 01:19:32;;;;;;;;;;;;;;;;;;1051784;28;3790;-57
2023/08/10 01:20:07;;;;;;;;;;;;;;;;;;1051980;28;3496;-59
2023/08/10 01:20:38;;;;;;;;;;;;;;;;;;1056163;27;3784;-59
2023/08/10 01:21:22;;;;;;;;;;;;;;;;;;1056273;28;1736;-57
2023/08/10 01:21:56;;;;;;;;;;;;;;;;;;1051562;28;3829;-58
2023/08/10 01:22:50;;;;;;;;;;;;;;;;;;1054120;28;3946;-58
2023/08/10 01:23:22;;;;;;;;;;;;;;;;;;1050126;28;4095;-58
2023/08/10 01:23:55;;;;;;;;;;;;;;;;;;1052346;28;1733;-55
2023/08/10 01:24:25;;;;;;;;;;;;;;;;;;1050757;28;4017;-57
2023/08/10 01:25:00;;;;;;;;;;;;;;;;;;1050389;28;3168;-56
2023/08/10 01:25:31;;;;;;;;;;;;;;;;;;1051478;28;3780;-56
2023/08/10 01:26:01;;;;;;;;;;;;;;;;;;1051599;28;2917;-55
2023/08/10 01:26:32;;;;;;;;;;;;;;;;;;1050868;28;4027;-59
2023/08/10 01:27:02;;;;;;;;;;;;;;;;;;1052333;28;1711;-57
2023/08/10 01:27:34;;;;;;;;;;;;;;;;;;1051010;28;3903;-58
2023/08/10 01:28:04;;;;;;;;;;;;;;;;;;1051351;28;3123;-59
2023/08/10 01:28:35;;;;;;;;;;;;;;;;;;1050195;28;3957;-59
2023/08/10 01:29:05;;;;;;;;;;;;;;;;;;1051936;28;3060;-55
2023/08/10 01:29:36;;;;;;;;;;;;;;;;;;1051229;28;3844;-57
2023/08/10 01:30:08;;;;;;;;;;;;;;;;;;1052122;28;3136;-60
2023/08/10 01:30:39;;;;;;;;;;;;;;;;;;1050901;28;3789;-60
2023/08/10 01:31:09;;;;;;;;;;;;;;;;;;1051377;28;1278;-59
2023/08/10 01:31:40;;;;;;;;;;;;;;;;;;1050378;28;3722;-59
2023/08/10 01:32:13;;;;;;;;;;;;;;;;;;1051169;28;3937;-57
2023/08/10 01:32:44;;;;;;;;;;;;;;;;;;1051993;28;1678;-58
2023/08/10 01:33:14;;;;;;;;;;;;;;;;;;1051513;28;3998;-58
2023/08/10 01:33:44;;;;;;;;;;;;;;;;;;1052263;28;1742;-57
2023/08/10 01:34:14;;;;;;;;;;;;;;;;;;1051256;28;3765;-57
2023/08/10 01:34:45;;;;;;;;;;;;;;;;;;1052785;28;1788;-56
2023/08/10 01:35:15;;;;;;;;;;;;;;;;;;1050550;28;4247;-59
2023/08/10 01:35:45;;;;;;;;;;;;;;;;;;1052169;28;1719;-58
2023/08/10 01:36:16;;;;;;;;;;;;;;;;;;1050935;28;4025;-57
2023/08/10 01:36:46;;;;;;;;;;;;;;;;;;1052215;28;1571;-57
2023/08/10 01:37:16;;;;;;;;;;;;;;;;;;1050937;28;3937;-59
2023/08/10 01:37:47;;;;;;;;;;;;;;;;;;1052768;28;1893;-56
2023/08/10 01:38:17;;;;;;;;;;;;;;;;;;1050549;28;3927;-59
2023/08/10 01:38:47;;;;;;;;;;;;;;;;;;1052468;28;3024;-56
2023/08/10 01:39:17;;;;;;;;;;;;;;;;;;1051835;28;3751;-59
2023/08/10 01:39:48;;;;;;;;;;;;;;;;;;1051866;28;2058;-60
2023/08/10 01:40:18;;;;;;;;;;;;;;;;;;1051998;28;3757;-60
2023/08/10 01:40:51;;;;;;;;;;;;;;;;;;1051898;28;1841;-57
2023/08/10 01:41:21;;;;;;;;;;;;;;;;;;1051283;28;4381;-58
2023/08/10 01:41:51;;;;;;;;;;;;;;;;;;1051003;28;3360;-57
2023/08/10 01:42:23;;;;;;;;;;;;;;;;;;1052113;28;3919;-59
2023/08/10 01:42:53;;;;;;;;;;;;;;;;;;1051826;28;1994;-58
2023/08/10 01:43:24;;;;;;;;;;;;;;;;;;1051842;28;4385;-58
2023/08/10 01:43:54;;;;;;;;;;;;;;;;;;1051301;28;1766;-59
2023/08/10 01:44:24;;;;;;;;;;;;;;;;;;1051822;28;3743;-56
2023/08/10 01:44:54;;;;;;;;;;;;;;;;;;1051963;28;1706;-56
2023/08/10 01:45:25;;;;;;;;;;;;;;;;;;1051008;28;3955;-58
2023/08/10 01:45:55;;;;;;;;;;;;;;;;;;1051517;28;2406;-58
2023/08/10 01:46:27;;;;;;;;;;;;;;;;;;1051457;28;4038;-59
2023/08/10 01:47:00;;;;;;;;;;;;;;;;;;1050403;28;2689;-58
2023/08/10 01:47:35;;;;;;;;;;;;;;;;;;1051408;28;3940;-58
2023/08/10 01:48:10;;;;;;;;;;;;;;;;;;1051386;28;3196;-57
2023/08/10 01:48:42;;;;;;;;;;;;;;;;;;1048186;28;3860;-59
2023/08/10 01:49:13;;;;;;;;;;;;;;;;;;1047318;28;4074;-59
2023/08/10 01:49:44;;;;;;;;;;;;;;;;;;1052261;28;2028;-58
2023/08/10 01:50:16;;;;;;;;;;;;;;;;;;1048911;28;3937;-56
2023/08/10 01:50:48;;;;;;;;;;;;;;;;;;1048043;28;1845;-56
2023/08/10 01:51:21;;;;;;;;;;;;;;;;;;1047459;28;4063;-58
2023/08/10 01:51:52;;;;;;;;;;;;;;;;;;1048000;28;1460;-59
2023/08/10 01:52:25;;;;;;;;;;;;;;;;;;1047109;28;4275;-58
2023/08/10 01:52:59;;;;;;;;;;;;;;;;;;1047477;28;3066;-58
2023/08/10 01:53:32;;;;;;;;;;;;;;;;;;1046004;28;4154;-58
2023/08/10 01:54:03;;;;;;;;;;;;;;;;;;1048134;28;1685;-57
2023/08/10 01:54:36;;;;;;;;;;;;;;;;;;1046429;28;3864;-58
2023/08/10 01:55:07;;;;;;;;;;;;;;;;;;1047817;28;1682;-56
2023/08/10 01:55:39;;;;;;;;;;;;;;;;;;1046930;28;3789;-57
2023/08/10 01:56:09;;;;;;;;;;;;;;;;;;1047038;28;3100;-58
2023/08/10 01:56:39;;;;;;;;;;;;;;;;;;1046520;28;3873;-56
2023/08/10 01:57:10;;;;;;;;;;;;;;;;;;1047669;28;2255;-57
2023/08/10 01:57:40;;;;;;;;;;;;;;;;;;1047752;28;3763;-58
2023/08/10 01:58:11;;;;;;;;;;;;;;;;;;1047234;28;3865;-55
2023/08/10 01:58:41;;;;;;;;;;;;;;;;;;1052100;28;1720;-56
2023/08/10 01:59:11;;;;;;;;;;;;;;;;;;1049980;28;4093;-61
2023/08/10 01:59:42;;;;;;;;;;;;;;;;;;1048645;28;3524;-57
2023/08/10 02:00:13;;;;;;;;;;;;;;;;;;1046873;28;3920;-57
2023/08/10 02:00:44;;;;;;;;;;;;;;;;;;1046721;28;1691;-58
2023/08/10 02:01:14;;;;;;;;;;;;;;;;;;1047095;28;3958;-58
2023/08/10 02:01:44;;;;;;;;;;;;;;;;;;1048334;28;1711;-57
2023/08/10 02:02:14;;;;;;;;;;;;;;;;;;1046364;28;3876;-55
2023/08/10 02:02:45;;;;;;;;;;;;;;;;;;1047960;28;2899;-59
2023/08/10 02:03:15;;;;;;;;;;;;;;;;;;1047102;28;4017;-57
2023/08/10 02:03:46;;;;;;;;;;;;;;;;;;1047680;28;1699;-58
2023/08/10 02:04:17;;;;;;;;;;;;;;;;;;1046973;28;4377;-59
2023/08/10 02:04:47;;;;;;;;;;;;;;;;;;1048040;28;1524;-56
2023/08/10 02:05:17;;;;;;;;;;;;;;;;;;1046256;28;3930;-57
2023/08/10 02:05:48;;;;;;;;;;;;;;;;;;1046957;28;3435;-58
2023/08/10 02:06:18;;;;;;;;;;;;;;;;;;1046179;28;4071;-58
2023/08/10 02:06:48;;;;;;;;;;;;;;;;;;1047700;28;1689;-55
2023/08/10 02:07:18;;;;;;;;;;;;;;;;;;1046827;28;3925;-58
2023/08/10 02:07:49;;;;;;;;;;;;;;;;;;1047823;28;1793;-56
2023/08/10 02:08:19;;;;;;;;;;;;;;;;;;1046254;28;4069;-59
2023/08/10 02:08:49;;;;;;;;;;;;;;;;;;1047110;28;1967;-56
2023/08/10 02:09:20;;;;;;;;;;;;;;;;;;1047236;28;3945;-58
2023/08/10 02:09:50;;;;;;;;;;;;;;;;;;1047608;28;1872;-60
2023/08/10 02:10:20;;;;;;;;;;;;;;;;;;1047317;28;4090;-59
2023/08/10 02:10:51;;;;;;;;;;;;;;;;;;1046890;28;3079;-59
2023/08/10 02:11:21;;;;;;;;;;;;;;;;;;1046166;28;4079;-60
2023/08/10 02:11:52;;;;;;;;;;;;;;;;;;1046932;28;3441;-60
2023/08/10 02:12:22;;;;;;;;;;;;;;;;;;1046538;28;4366;-57
2023/08/10 02:12:52;;;;;;;;;;;;;;;;;;1047772;28;1633;-59
2023/08/10 02:13:22;;;;;;;;;;;;;;;;;;1047613;28;3853;-55
2023/08/10 02:13:53;;;;;;;;;;;;;;;;;;1047556;28;1854;-60
2023/08/10 02:14:23;;;;;;;;;;;;;;;;;;1046523;28;3849;-55
2023/08/10 02:14:53;;;;;;;;;;;;;;;;;;1047295;28;3394;-60
2023/08/10 02:15:23;;;;;;;;;;;;;;;;;;1046847;28;4062;-59
2023/08/10 02:15:54;;;;;;;;;;;;;;;;;;1047708;28;1751;-59
2023/08/10 02:16:24;;;;;;;;;;;;;;;;;;1047133;28;5414;-57
2023/08/10 02:16:54;;;;;;;;;;;;;;;;;;1048112;28;1684;-57
2023/08/10 02:17:25;;;;;;;;;;;;;;;;;;1044971;28;4176;-59
2023/08/10 02:17:56;;;;;;;;;;;;;;;;;;1047461;28;1309;-57
2023/08/10 02:18:26;;;;;;;;;;;;;;;;;;1046638;28;4365;-55
2023/08/10 02:18:56;;;;;;;;;;;;;;;;;;1047591;28;1683;-55
2023/08/10 02:19:26;;;;;;;;;;;;;;;;;;1047244;28;4075;-55
2023/08/10 02:19:57;;;;;;;;;;;;;;;;;;1047998;28;1848;-57
2023/08/10 02:20:27;;;;;;;;;;;;;;;;;;1046369;28;3876;-60
2023/08/10 02:20:57;;;;;;;;;;;;;;;;;;1046104;28;3152;-59
2023/08/10 02:21:27;;;;;;;;;;;;;;;;;;1045669;28;3776;-59
2023/08/10 02:21:58;;;;;;;;;;;;;;;;;;1048167;28;1782;-58
2023/08/10 02:22:28;;;;;;;;;;;;;;;;;;1047302;28;4064;-60
2023/08/10 02:22:58;;;;;;;;;;;;;;;;;;1049770;28;1910;-60
2023/08/10 02:23:29;;;;;;;;;;;;;;;;;;1050193;28;4070;-61
2023/08/10 02:23:59;;;;;;;;;;;;;;;;;;1051714;28;1659;-58
2023/08/10 02:24:29;;;;;;;;;;;;;;;;;;1050540;28;3785;-56
2023/08/10 02:25:00;;;;;;;;;;;;;;;;;;1051888;28;1720;-54
2023/08/10 02:25:30;;;;;;;;;;;;;;;;;;1051238;27;3881;-58
2023/08/10 02:26:00;;;;;;;;;;;;;;;;;;1051883;28;1753;-60
2023/08/10 02:26:30;;;;;;;;;;;;;;;;;;1053407;27;4354;-60
2023/08/10 02:27:02;;;;;;;;;;;;;;;;;;1056333;28;1696;-58
2023/08/10 02:27:32;;;;;;;;;;;;;;;;;;1051606;28;4020;-59
2023/08/10 02:28:02;;;;;;;;;;;;;;;;;;1051268;28;1447;-59
2023/08/10 02:28:33;;;;;;;;;;;;;;;;;;1050212;28;4768;-60
2023/08/10 02:29:03;;;;;;;;;;;;;;;;;;1050313;28;3256;-58
2023/08/10 02:29:33;;;;;;;;;;;;;;;;;;1054655;27;3872;-59
2023/08/10 02:30:04;;;;;;;;;;;;;;;;;;1055649;28;2610;-56
2023/08/10 02:30:34;;;;;;;;;;;;;;;;;;1054300;28;3818;-60
2023/08/10 02:31:05;;;;;;;;;;;;;;;;;;1055899;28;1811;-58
2023/08/10 02:31:35;;;;;;;;;;;;;;;;;;1055924;27;3779;-57
2023/08/10 02:32:05;;;;;;;;;;;;;;;;;;1056209;28;1765;-57
2023/08/10 02:32:35;;;;;;;;;;;;;;;;;;1055051;27;4030;-58
2023/08/10 02:33:06;;;;;;;;;;;;;;;;;;1055792;28;1695;-58
2023/08/10 02:33:36;;;;;;;;;;;;;;;;;;1055704;28;3720;-54
2023/08/10 02:34:06;;;;;;;;;;;;;;;;;;1055727;28;1857;-58
2023/08/10 02:34:37;;;;;;;;;;;;;;;;;;1055615;27;3688;-60
2023/08/10 02:35:09;;;;;;;;;;;;;;;;;;1055650;28;2706;-59
2023/08/10 02:35:39;;;;;;;;;;;;;;;;;;1054076;28;3879;-59
2023/08/10 02:36:09;;;;;;;;;;;;;;;;;;1055753;28;1283;-56
2023/08/10 02:36:39;;;;;;;;;;;;;;;;;;1055819;28;4004;-60
2023/08/10 02:37:10;;;;;;;;;;;;;;;;;;1055709;28;4031;-54
2023/08/10 02:37:40;;;;;;;;;;;;;;;;;;1056002;28;1849;-60
2023/08/10 02:38:10;;;;;;;;;;;;;;;;;;1055522;27;4104;-60
2023/08/10 02:38:41;;;;;;;;;;;;;;;;;;1055179;28;3134;-58
2023/08/10 02:39:11;;;;;;;;;;;;;;;;;;1054150;27;3856;-57
2023/08/10 02:39:41;;;;;;;;;;;;;;;;;;1056139;28;1856;-56
2023/08/10 02:40:11;;;;;;;;;;;;;;;;;;1055613;28;4201;-59
2023/08/10 02:40:42;;;;;;;;;;;;;;;;;;1056077;28;1768;-60
2023/08/10 02:41:12;;;;;;;;;;;;;;;;;;1055642;28;4822;-58
2023/08/10 02:41:43;;;;;;;;;;;;;;;;;;1055675;28;3188;-59
2023/08/10 02:42:13;;;;;;;;;;;;;;;;;;1054896;27;4025;-57
2023/08/10 02:42:43;;;;;;;;;;;;;;;;;;1055482;28;3122;-60
2023/08/10 02:43:13;;;;;;;;;;;;;;;;;;1055270;27;3936;-60
2023/08/10 02:43:44;;;;;;;;;;;;;;;;;;1055908;28;1661;-53
2023/08/10 02:44:14;;;;;;;;;;;;;;;;;;1054116;27;3851;-59
2023/08/10 02:44:44;;;;;;;;;;;;;;;;;;1055220;28;3084;-58
2023/08/10 02:45:15;;;;;;;;;;;;;;;;;;1054317;28;3791;-58
2023/08/10 02:45:45;;;;;;;;;;;;;;;;;;1054781;28;2914;-58
2023/08/10 02:46:15;;;;;;;;;;;;;;;;;;1055800;27;4024;-59
2023/08/10 02:46:45;;;;;;;;;;;;;;;;;;1055824;28;1962;-57
2023/08/10 02:47:16;;;;;;;;;;;;;;;;;;1055666;27;4175;-58
2023/08/10 02:47:46;;;;;;;;;;;;;;;;;;1056079;28;1943;-57
2023/08/10 02:48:16;;;;;;;;;;;;;;;;;;1055793;28;4004;-56
2023/08/10 02:48:46;;;;;;;;;;;;;;;;;;1055891;28;1577;-58
2023/08/10 02:49:17;;;;;;;;;;;;;;;;;;1055795;28;3794;-60
2023/08/10 02:49:47;;;;;;;;;;;;;;;;;;1054656;28;1816;-56
2023/08/10 02:50:18;;;;;;;;;;;;;;;;;;1055538;27;4255;-58
2023/08/10 02:50:49;;;;;;;;;;;;;;;;;;1056657;28;1285;-55
2023/08/10 02:51:19;;;;;;;;;;;;;;;;;;1055175;27;4047;-60
2023/08/10 02:51:49;;;;;;;;;;;;;;;;;;1055880;28;1942;-60
2023/08/10 02:52:20;;;;;;;;;;;;;;;;;;1055225;27;4048;-55
2023/08/10 02:52:51;;;;;;;;;;;;;;;;;;1056496;28;1679;-57
2023/08/10 02:53:21;;;;;;;;;;;;;;;;;;1053699;27;3933;-56
2023/08/10 02:53:51;;;;;;;;;;;;;;;;;;1054727;28;3113;-59
2023/08/10 02:54:22;;;;;;;;;;;;;;;;;;1055236;27;3777;-57
2023/08/10 02:54:52;;;;;;;;;;;;;;;;;;1049667;28;3105;-55
2023/08/10 02:55:22;;;;;;;;;;;;;;;;;;1050504;28;3876;-59
2023/08/10 02:55:52;;;;;;;;;;;;;;;;;;1051207;28;3205;-59
2023/08/10 02:56:23;;;;;;;;;;;;;;;;;;1050949;28;3765;-58
2023/08/10 02:56:53;;;;;;;;;;;;;;;;;;1056166;28;1755;-59
2023/08/10 02:57:23;;;;;;;;;;;;;;;;;;1055845;28;3764;-59
2023/08/10 02:57:53;;;;;;;;;;;;;;;;;;1055635;28;2007;-57
2023/08/10 02:58:24;;;;;;;;;;;;;;;;;;1055913;27;3776;-60
2023/08/10 02:58:54;;;;;;;;;;;;;;;;;;1055570;28;1694;-60
2023/08/10 02:59:24;;;;;;;;;;;;;;;;;;1055941;27;4001;-59
2023/08/10 02:59:55;;;;;;;;;;;;;;;;;;1054614;28;2974;-59
2023/08/10 03:00:25;;;;;;;;;;;;;;;;;;1055240;27;4235;-59
2023/08/10 03:00:56;;;;;;;;;;;;;;;;;;1055907;28;2213;-58
2023/08/10 03:01:26;;;;;;;;;;;;;;;;;;1056007;28;4396;-58
2023/08/10 03:01:56;;;;;;;;;;;;;;;;;;1056372;28;1733;-57
2023/08/10 03:02:28;;;;;;;;;;;;;;;;;;1055097;28;4007;-55
2023/08/10 03:02:59;;;;;;;;;;;;;;;;;;1056426;28;1984;-56
2023/08/10 03:03:29;;;;;;;;;;;;;;;;;;1054978;28;4056;-59
2023/08/10 03:04:00;;;;;;;;;;;;;;;;;;1056168;28;1430;-57
2023/08/10 03:04:30;;;;;;;;;;;;;;;;;;1054834;28;4024;-57
2023/08/10 03:05:00;;;;;;;;;;;;;;;;;;1056394;28;1531;-60
2023/08/10 03:05:30;;;;;;;;;;;;;;;;;;1055684;28;4005;-59
2023/08/10 03:06:01;;;;;;;;;;;;;;;;;;1055827;28;1998;-57
2023/08/10 03:06:32;;;;;;;;;;;;;;;;;;1055633;28;3880;-58
2023/08/10 03:07:02;;;;;;;;;;;;;;;;;;1055757;28;1658;-57
2023/08/10 03:07:33;;;;;;;;;;;;;;;;;;1056095;27;4321;-58
2023/08/10 03:08:03;;;;;;;;;;;;;;;;;;1055582;28;1964;-57
2023/08/10 03:08:34;;;;;;;;;;;;;;;;;;1055821;28;3982;-56
2023/08/10 03:09:06;;;;;;;;;;;;;;;;;;1054549;28;3075;-55
2023/08/10 03:09:37;;;;;;;;;;;;;;;;;;1055833;28;4036;-59
2023/08/10 03:10:07;;;;;;;;;;;;;;;;;;1055790;28;1933;-58
2023/08/10 03:10:37;;;;;;;;;;;;;;;;;;1055703;27;3719;-56
2023/08/10 03:11:08;;;;;;;;;;;;;;;;;;1055147;28;1931;-59
2023/08/10 03:11:38;;;;;;;;;;;;;;;;;;1054524;28;3750;-57
2023/08/10 03:12:09;;;;;;;;;;;;;;;;;;1051450;28;1277;-58
2023/08/10 03:12:39;;;;;;;;;;;;;;;;;;1050654;28;5040;-58
2023/08/10 03:13:10;;;;;;;;;;;;;;;;;;1051055;28;3793;-57
2023/08/10 03:13:40;;;;;;;;;;;;;;;;;;1052112;28;2871;-57
2023/08/10 03:14:10;;;;;;;;;;;;;;;;;;1055410;28;4042;-60
2023/08/10 03:14:40;;;;;;;;;;;;;;;;;;1054927;28;3027;-59
2023/08/10 03:15:11;;;;;;;;;;;;;;;;;;1054540;28;3878;-57
2023/08/10 03:15:41;;;;;;;;;;;;;;;;;;1055848;28;1663;-59
2023/08/10 03:16:12;;;;;;;;;;;;;;;;;;1055401;27;4084;-58
2023/08/10 03:16:42;;;;;;;;;;;;;;;;;;1055871;28;1562;-59
2023/08/10 03:17:12;;;;;;;;;;;;;;;;;;1055475;28;3789;-60
2023/08/10 03:17:43;;;;;;;;;;;;;;;;;;1055771;28;1622;-58
2023/08/10 03:18:13;;;;;;;;;;;;;;;;;;1055069;27;4223;-57
2023/08/10 03:18:44;;;;;;;;;;;;;;;;;;1056065;28;1802;-56
2023/08/10 03:19:14;;;;;;;;;;;;;;;;;;1055591;27;4396;-56
2023/08/10 03:19:44;;;;;;;;;;;;;;;;;;1056111;28;1469;-59
2023/08/10 03:20:16;;;;;;;;;;;;;;;;;;1055274;28;3773;-59
2023/08/10 03:20:47;;;;;;;;;;;;;;;;;;1056114;28;1980;-57
2023/08/10 03:21:17;;;;;;;;;;;;;;;;;;1055372;28;3996;-60
2023/08/10 03:21:47;;;;;;;;;;;;;;;;;;1056061;28;1613;-57
2023/08/10 03:22:18;;;;;;;;;;;;;;;;;;1055162;27;4416;-60
2023/08/10 03:22:48;;;;;;;;;;;;;;;;;;1055508;28;3193;-58
2023/08/10 03:23:18;;;;;;;;;;;;;;;;;;1054143;27;3812;-59
2023/08/10 03:23:49;;;;;;;;;;;;;;;;;;1055957;28;2170;-56
2023/08/10 03:24:19;;;;;;;;;;;;;;;;;;1055225;28;4382;-60
2023/08/10 03:24:49;;;;;;;;;;;;;;;;;;1051336;28;1658;-59
2023/08/10 03:25:19;;;;;;;;;;;;;;;;;;1050699;28;3744;-57
2023/08/10 03:25:50;;;;;;;;;;;;;;;;;;1051409;28;2204;-55
2023/08/10 03:26:20;;;;;;;;;;;;;;;;;;1050870;28;4047;-57
2023/08/10 03:26:50;;;;;;;;;;;;;;;;;;1056366;28;1626;-56
2023/08/10 03:27:21;;;;;;;;;;;;;;;;;;1055358;27;4008;-57
2023/08/10 03:27:51;;;;;;;;;;;;;;;;;;1055774;28;1760;-57
2023/08/10 03:28:22;;;;;;;;;;;;;;;;;;1055526;28;4369;-60
2023/08/10 03:28:53;;;;;;;;;;;;;;;;;;1055754;28;1677;-59
2023/08/10 03:29:23;;;;;;;;;;;;;;;;;;1050732;28;4151;-60
2023/08/10 03:29:53;;;;;;;;;;;;;;;;;;1051377;28;1686;-59
2023/08/10 03:30:23;;;;;;;;;;;;;;;;;;1050137;28;3850;-58
2023/08/10 03:30:54;;;;;;;;;;;;;;;;;;1051218;28;1782;-57
2023/08/10 03:31:24;;;;;;;;;;;;;;;;;;1055590;27;3973;-58
2023/08/10 03:31:54;;;;;;;;;;;;;;;;;;1055868;28;1696;-57
2023/08/10 03:32:25;;;;;;;;;;;;;;;;;;1055591;27;4257;-58
2023/08/10 03:32:55;;;;;;;;;;;;;;;;;;1055700;28;1892;-57
2023/08/10 03:33:25;;;;;;;;;;;;;;;;;;1055778;28;4064;-59
2023/08/10 03:33:56;;;;;;;;;;;;;;;;;;1055155;28;1700;-57
2023/08/10 03:34:26;;;;;;;;;;;;;;;;;;1055726;28;3986;-59
2023/08/10 03:34:56;;;;;;;;;;;;;;;;;;1055504;28;1981;-56
2023/08/10 03:35:26;;;;;;;;;;;;;;;;;;1055599;27;4006;-59
2023/08/10 03:35:57;;;;;;;;;;;;;;;;;;1055551;28;1906;-58